CheckWX is a tool to help pilots better visualize weather data.  It is not intended as a substitute for an official pre-flight weather briefing.

18:01:15 UTC

KRWI METAR
Rocky Mount-Wilson Regional Airport
Rocky Mount, North Carolina, USA
Current

8 mins ago

KRWI 261753Z AUTO 06007KT 030V100 10SM OVC019 22/18 A3017 RMK AO2 SLP215 T02220178 10222 20172 58010
Observed
May-26 @ 17:53 UTC
Wind
  • 060° at 7 KTS
Visibility
Flight Rules
MVFR
Cloud Levels
  • Overcast at 1,900' AGL
Temperature
22°C / 72°F
Dewpoint
18°C / 64°F
Humidity
78%
Altimeter
30.17" Hg
Pressure
1021.72 hPa
Previous

60 mins ago

KRWI 261701Z AUTO 03008KT 10SM OVC016 21/17 A3019 RMK AO2 T02110172
Observed
May-26 @ 17:01 UTC
Wind
  • 030° at 8 KTS
Visibility
Flight Rules
MVFR
Cloud Levels
  • Overcast at 1,600' AGL
Temperature
21°C / 70°F
Dewpoint
17°C / 63°F
Humidity
78%
Altimeter
30.19" Hg
Pressure
1022.32 hPa
Previous

1 hour ago

KRWI 261653Z AUTO 04008KT 10SM OVC014 21/17 A3019 RMK AO2 SLP222 T02110172
Observed
May-26 @ 16:53 UTC
Wind
  • 040° at 8 KTS
Visibility
Flight Rules
MVFR
Cloud Levels
  • Overcast at 1,400' AGL
Temperature
21°C / 70°F
Dewpoint
17°C / 63°F
Humidity
78%
Altimeter
30.19" Hg
Pressure
1022.32 hPa